Time;durP1;ratioP1;P1;durP2;ratioP2;P2;SDS_P1;SDS_P2;PMS_P1;PMS_P2;Temp;Humidity;BMP_temperature;BMP_pressure;BME280_temperature;BME280_humidity;BME280_pressure;Samples;Min_cycle;Max_cycle;Signal;HPM_P1;HPM_P2
2022/03/19 00:00:13;;;;;;;88.97;42.38;;;5.20;99.90;;;;;;5016209;28;20044;-69
2022/03/19 00:02:45;;;;;;;90.20;43.40;;;5.20;99.90;;;;;;5019036;28;20025;-69
2022/03/19 00:05:16;;;;;;;86.75;42.35;;;5.20;99.90;;;;;;5015948;28;20059;-69
2022/03/19 00:07:42;;;;;;;91.82;44.45;;;5.20;99.90;;;;;;5007841;28;20109;-67
2022/03/19 00:10:09;;;;;;;91.28;44.10;;;5.20;99.90;;;;;;5018773;28;20109;-69
2022/03/19 00:12:39;;;;;;;91.68;43.10;;;5.10;99.90;;;;;;5018684;28;20037;-67
2022/03/19 00:15:06;;;;;;;89.90;43.92;;;5.20;99.90;;;;;;5001834;28;20022;-68
2022/03/19 00:17:32;;;;;;;89.63;42.05;;;5.10;99.90;;;;;;5034873;28;20116;-68
2022/03/19 00:20:00;;;;;;;84.63;42.00;;;5.10;99.90;;;;;;5018561;28;20557;-67
2022/03/19 00:22:26;;;;;;;84.93;42.70;;;5.10;99.90;;;;;;5016305;28;20041;-67
2022/03/19 00:24:55;;;;;;;85.72;43.00;;;5.10;99.90;;;;;;5006011;28;20030;-67
2022/03/19 00:27:20;;;;;;;85.18;43.22;;;5.10;99.90;;;;;;5010450;28;20026;-67
2022/03/19 00:33:07;;;;;;;92.60;43.97;;;5.10;99.90;;;;;;5023736;28;20029;-67
2022/03/19 00:35:33;;;;;;;87.70;43.75;;;5.10;99.90;;;;;;5004548;28;20029;-67
2022/03/19 00:37:59;;;;;;;94.65;44.65;;;5.10;99.90;;;;;;5027526;28;20025;-67
2022/03/19 00:40:26;;;;;;;89.15;42.72;;;5.00;99.90;;;;;;5023206;28;20044;-68
2022/03/19 00:42:54;;;;;;;88.45;44.45;;;5.00;99.90;;;;;;5023050;28;20025;-69
2022/03/19 00:45:23;;;;;;;95.63;46.03;;;5.00;99.90;;;;;;5006310;28;20049;-67
2022/03/19 00:47:49;;;;;;;90.03;44.63;;;4.90;99.90;;;;;;5020839;28;20486;-68
2022/03/19 00:50:18;;;;;;;93.68;45.03;;;4.90;99.90;;;;;;5017713;28;20037;-67
2022/03/19 00:52:46;;;;;;;97.97;46.75;;;4.80;99.90;;;;;;5022914;28;20488;-69
2022/03/19 00:55:15;;;;;;;90.15;44.20;;;4.90;99.90;;;;;;5019088;28;20037;-69
2022/03/19 00:57:43;;;;;;;97.80;46.25;;;4.80;99.90;;;;;;5017226;28;20087;-67
2022/03/19 01:00:11;;;;;;;97.38;46.72;;;4.80;99.90;;;;;;5017844;28;20025;-68
2022/03/19 01:02:39;;;;;;;91.38;46.72;;;4.70;99.90;;;;;;5022171;28;20041;-67
2022/03/19 01:05:05;;;;;;;98.88;45.83;;;4.80;99.90;;;;;;5016794;28;20075;-67
2022/03/19 01:07:30;;;;;;;97.60;46.15;;;4.70;99.90;;;;;;5020246;28;20033;-67
2022/03/19 01:09:56;;;;;;;98.40;47.13;;;4.70;99.90;;;;;;5020007;28;20025;-67
2022/03/19 01:12:22;;;;;;;97.28;47.55;;;4.60;99.90;;;;;;5019292;28;20037;-68
2022/03/19 01:14:51;;;;;;;93.93;47.63;;;4.70;99.90;;;;;;5019864;28;20034;-67
2022/03/19 01:17:17;;;;;;;97.30;46.83;;;4.60;99.90;;;;;;5053978;23;20032;-69
2022/03/19 01:19:54;;;;;;;105.18;49.53;;;4.60;99.90;;;;;;5072628;28;20491;-69
2022/03/19 01:22:23;;;;;;;96.22;46.70;;;4.50;99.90;;;;;;5054512;28;20468;-69
2022/03/19 01:24:55;;;;;;;99.90;48.20;;;4.50;99.90;;;;;;5072670;28;20020;-70
2022/03/19 01:27:21;;;;;;;96.82;47.25;;;4.50;99.90;;;;;;5072422;28;20070;-69
2022/03/19 01:29:52;;;;;;;96.32;46.28;;;4.50;99.90;;;;;;5072536;28;20021;-70
2022/03/19 01:32:27;;;;;;;99.30;48.67;;;4.50;99.90;;;;;;5072082;28;20033;-70
2022/03/19 01:34:53;;;;;;;100.45;44.80;;;4.50;99.90;;;;;;5072063;28;20028;-70
2022/03/19 01:37:20;;;;;;;94.78;46.55;;;4.50;99.90;;;;;;5071984;28;20029;-70
2022/03/19 01:39:55;;;;;;;99.05;46.55;;;4.40;99.90;;;;;;5071965;28;20021;-70
2022/03/19 01:42:32;;;;;;;103.93;46.10;;;4.40;99.90;;;;;;5071725;28;20020;-69
2022/03/19 01:44:59;;;;;;;93.22;45.38;;;4.40;99.90;;;;;;5070303;28;20039;-69
2022/03/19 01:47:26;;;;;;;92.63;44.47;;;4.40;99.90;;;;;;5070517;28;20024;-69
2022/03/19 01:49:52;;;;;;;97.53;46.65;;;4.30;99.90;;;;;;5071717;28;20034;-70
2022/03/19 01:52:21;;;;;;;98.90;47.20;;;4.40;99.90;;;;;;5070787;28;20142;-70
2022/03/19 01:54:49;;;;;;;93.68;46.17;;;4.30;99.90;;;;;;5071988;28;20473;-70
2022/03/19 01:57:21;;;;;;;89.57;45.72;;;4.30;99.90;;;;;;5071703;28;20029;-70
2022/03/19 01:59:47;;;;;;;92.65;45.42;;;4.30;99.90;;;;;;5071722;28;20096;-70
2022/03/19 02:02:14;;;;;;;87.75;44.72;;;4.20;99.90;;;;;;5071831;28;20025;-70
2022/03/19 02:04:42;;;;;;;96.55;46.13;;;4.20;99.90;;;;;;5071867;28;20025;-70
2022/03/19 02:07:11;;;;;;;96.18;44.67;;;4.20;99.90;;;;;;5071756;28;20028;-70
2022/03/19 02:09:38;;;;;;;93.78;46.20;;;4.20;99.90;;;;;;5070238;28;20070;-70
2022/03/19 02:12:07;;;;;;;93.78;43.30;;;4.20;99.90;;;;;;5071655;28;20078;-70
2022/03/19 02:14:35;;;;;;;88.15;44.22;;;4.20;99.90;;;;;;5071542;28;20028;-70
2022/03/19 02:17:02;;;;;;;93.05;46.90;;;4.20;99.90;;;;;;5071464;28;20028;-70
2022/03/19 02:19:28;;;;;;;97.13;44.25;;;4.20;99.90;;;;;;5070721;28;20046;-72
2022/03/19 02:21:54;;;;;;;90.15;43.88;;;4.20;99.90;;;;;;5070533;28;20021;-70
2022/03/19 02:27:07;;;;;;;94.05;44.53;;;4.10;99.90;;;;;;5071654;28;20499;-70
2022/03/19 02:29:33;;;;;;;85.20;43.50;;;4.10;99.90;;;;;;5071471;28;20040;-69
2022/03/19 02:32:00;;;;;;;86.80;44.05;;;4.00;99.90;;;;;;5071979;28;20056;-70
2022/03/19 02:34:35;;;;;;;95.28;46.03;;;4.00;99.90;;;;;;5070076;28;20111;-70
2022/03/19 02:37:01;;;;;;;87.80;42.78;;;4.00;99.90;;;;;;5071313;28;20024;-70
2022/03/19 02:39:31;;;;;;;90.05;42.10;;;4.00;99.90;;;;;;5070760;28;20016;-69
2022/03/19 02:41:59;;;;;;;84.80;43.13;;;3.90;99.90;;;;;;5071407;28;20033;-69
2022/03/19 02:44:24;;;;;;;87.22;43.95;;;4.00;99.90;;;;;;5071248;28;20021;-70
2022/03/19 02:46:56;;;;;;;86.75;43.42;;;3.90;99.90;;;;;;5071517;28;20610;-69
2022/03/19 02:49:22;;;;;;;83.82;40.80;;;3.90;99.90;;;;;;5069840;28;20052;-69
2022/03/19 02:51:53;;;;;;;92.07;42.88;;;3.90;99.90;;;;;;5071205;28;20117;-69
2022/03/19 02:54:27;;;;;;;83.90;41.33;;;3.90;99.90;;;;;;5071620;28;20032;-69
2022/03/19 02:56:53;;;;;;;;;;;3.90;99.90;;;;;;5075684;28;20021;-69
2022/03/19 02:59:27;;;;;;;85.50;40.03;;;3.80;99.90;;;;;;5074917;28;19911;-70
2022/03/19 03:01:56;;;;;;;86.75;42.40;;;3.80;99.90;;;;;;5073473;28;20028;-69
2022/03/19 03:04:32;;;;;;;88.05;42.03;;;3.70;99.90;;;;;;5073458;28;20029;-69
2022/03/19 03:07:00;;;;;;;84.60;42.47;;;3.70;99.90;;;;;;5074846;28;20020;-69
2022/03/19 03:09:31;;;;;;;90.55;43.45;;;3.70;99.90;;;;;;5073325;28;20024;-69
2022/03/19 03:12:03;;;;;;;89.47;41.85;;;3.60;99.90;;;;;;5074489;28;20054;-71
2022/03/19 03:14:32;;;;;;;88.18;41.17;;;3.60;99.90;;;;;;5074848;28;20038;-70
2022/03/19 03:17:00;;;;;;;91.03;41.97;;;3.60;99.90;;;;;;5074719;28;20032;-70
2022/03/19 03:19:26;;;;;;;87.40;42.45;;;3.60;99.90;;;;;;5074526;28;20039;-71
2022/03/19 03:21:51;;;;;;;84.88;42.53;;;3.60;99.90;;;;;;5073214;28;20116;-71
2022/03/19 03:24:17;;;;;;;78.30;39.55;;;3.50;99.90;;;;;;5073179;28;20032;-71
2022/03/19 03:26:43;;;;;;;84.22;41.15;;;3.50;99.90;;;;;;5073027;28;20449;-71
2022/03/19 03:29:14;;;;;;;85.78;40.15;;;3.60;99.90;;;;;;5074262;28;20024;-70
2022/03/19 03:31:49;;;;;;;86.63;42.45;;;3.50;99.90;;;;;;5074219;28;20088;-71
2022/03/19 03:34:17;;;;;;;84.88;39.67;;;3.50;99.90;;;;;;5074381;28;20016;-70
2022/03/19 03:36:46;;;;;;;85.95;41.50;;;3.50;99.90;;;;;;5073043;28;20017;-70
2022/03/19 03:39:12;;;;;;;87.82;41.13;;;3.50;99.90;;;;;;5072990;28;20027;-71
2022/03/19 03:41:41;;;;;;;82.90;42.03;;;3.50;99.90;;;;;;5072749;28;20024;-70
2022/03/19 03:44:06;;;;;;;81.43;39.53;;;3.40;99.90;;;;;;5074076;28;20063;-71
2022/03/19 03:46:32;;;;;;;86.13;41.03;;;3.40;99.90;;;;;;5074062;28;20485;-71
2022/03/19 03:49:04;;;;;;;77.90;39.63;;;3.40;99.90;;;;;;5073870;28;20237;-71
2022/03/19 03:51:29;;;;;;;79.82;39.45;;;3.40;99.90;;;;;;5073681;28;20519;-71
2022/03/19 03:54:01;;;;;;;84.20;41.33;;;3.30;99.90;;;;;;5073805;28;20028;-70
2022/03/19 03:56:27;;;;;;;85.95;39.67;;;3.30;99.90;;;;;;5072429;28;20021;-70
2022/03/19 03:58:53;;;;;;;79.13;39.42;;;3.30;99.90;;;;;;5072013;28;20070;-70
2022/03/19 04:01:19;;;;;;;81.78;41.35;;;3.30;99.90;;;;;;5073673;28;20396;-70
2022/03/19 04:03:44;;;;;;;81.75;39.65;;;3.20;99.90;;;;;;5073526;28;20020;-70
2022/03/19 04:06:10;;;;;;;82.63;40.53;;;3.20;99.90;;;;;;5072784;28;20036;-70
2022/03/19 04:08:36;;;;;;;84.85;40.13;;;3.20;99.90;;;;;;5072298;28;20511;-70
2022/03/19 04:11:01;;;;;;;83.97;40.58;;;3.20;99.90;;;;;;5073483;28;20146;-70
2022/03/19 04:13:27;;;;;;;89.35;42.75;;;3.10;99.90;;;;;;5071877;28;20489;-70
2022/03/19 04:15:53;;;;;;;78.18;38.53;;;3.10;99.90;;;;;;5073428;28;20016;-70
2022/03/19 04:18:18;;;;;;;81.03;40.40;;;3.10;99.90;;;;;;5073216;28;20082;-70
2022/03/19 04:20:44;;;;;;;80.18;40.17;;;3.10;99.90;;;;;;5073340;28;20025;-70
2022/03/19 04:23:10;;;;;;;85.10;41.47;;;3.10;99.90;;;;;;5073390;28;20021;-70
2022/03/19 04:25:36;;;;;;;76.25;37.80;;;3.10;99.90;;;;;;5073767;28;20020;-70
2022/03/19 04:28:02;;;;;;;83.68;40.72;;;3.10;99.90;;;;;;5073163;28;20028;-70
2022/03/19 04:30:27;;;;;;;84.47;41.03;;;3.10;99.90;;;;;;5071657;28;20130;-70
2022/03/19 04:32:58;;;;;;;74.18;38.03;;;3.10;99.90;;;;;;5072896;28;20126;-70
2022/03/19 04:38:12;;;;;;;74.72;38.22;;;3.10;99.90;;;;;;5073393;28;20082;-70
2022/03/19 04:40:38;;;;;;;82.65;38.80;;;3.10;99.90;;;;;;5073058;28;20028;-70
2022/03/19 04:43:05;;;;;;;80.05;39.38;;;3.10;99.90;;;;;;5072756;28;20036;-70
2022/03/19 04:45:31;;;;;;;80.25;38.45;;;3.10;99.90;;;;;;5073009;28;20059;-71
2022/03/19 04:47:56;;;;;;;84.85;39.35;;;3.00;99.90;;;;;;5072364;28;20434;-71
2022/03/19 04:50:23;;;;;;;83.20;39.15;;;3.00;99.90;;;;;;5071399;28;20043;-70
2022/03/19 04:52:49;;;;;;;74.38;37.58;;;3.00;99.90;;;;;;5071305;28;20071;-70
2022/03/19 04:55:15;;;;;;;77.80;36.78;;;3.00;99.90;;;;;;5072565;28;20021;-70
2022/03/19 04:57:41;;;;;;;75.32;36.63;;;3.00;99.90;;;;;;5072628;28;20021;-70
2022/03/19 05:00:10;;;;;;;76.22;38.72;;;3.00;99.90;;;;;;5072627;28;20446;-70
2022/03/19 05:02:36;;;;;;;74.15;37.30;;;3.00;99.90;;;;;;5072609;28;20021;-70
2022/03/19 05:05:02;;;;;;;76.40;37.47;;;3.00;99.90;;;;;;5072512;28;20028;-70
2022/03/19 05:07:28;;;;;;;72.97;38.65;;;2.90;99.90;;;;;;5072366;28;20052;-70
2022/03/19 05:12:41;;;;;;;73.28;36.88;;;2.90;99.90;;;;;;5072519;28;20604;-70
2022/03/19 05:15:10;;;;;;;76.85;36.00;;;2.90;99.90;;;;;;5072335;28;20490;-70
2022/03/19 05:17:36;;;;;;;75.05;38.08;;;2.90;99.90;;;;;;5071999;28;20027;-70
2022/03/19 05:20:03;;;;;;;72.65;36.13;;;2.80;99.90;;;;;;5073181;28;20021;-70
2022/03/19 05:22:29;;;;;;;74.70;38.13;;;2.90;99.90;;;;;;5072814;28;20392;-70
2022/03/19 05:24:58;;;;;;;75.63;36.60;;;2.90;99.90;;;;;;5072856;28;20096;-70
2022/03/19 05:27:25;;;;;;;76.00;36.92;;;2.80;99.90;;;;;;5072098;28;20029;-70
2022/03/19 05:29:51;;;;;;;77.97;38.30;;;2.90;99.90;;;;;;5072403;28;20465;-70
2022/03/19 05:32:18;;;;;;;76.45;36.75;;;2.80;99.90;;;;;;5073098;28;20400;-70
2022/03/19 05:34:43;;;;;;;78.07;37.05;;;2.80;99.90;;;;;;5073050;28;20369;-70
2022/03/19 05:37:10;;;;;;;73.60;34.38;;;2.80;99.90;;;;;;5071705;28;20024;-70
2022/03/19 05:39:36;;;;;;;78.78;36.72;;;2.80;99.90;;;;;;5072827;28;20182;-70
2022/03/19 05:42:02;;;;;;;74.40;35.63;;;2.80;99.90;;;;;;5071585;28;20064;-70
2022/03/19 05:44:28;;;;;;;78.63;36.50;;;2.80;99.90;;;;;;5072513;28;20516;-70
2022/03/19 05:46:57;;;;;;;77.28;38.05;;;2.80;99.90;;;;;;5072419;28;20035;-69
2022/03/19 05:49:23;;;;;;;75.22;35.33;;;2.80;99.90;;;;;;5071566;28;20051;-70
2022/03/19 05:51:48;;;;;;;74.47;36.90;;;2.80;99.90;;;;;;5072699;28;20091;-70
2022/03/19 05:54:14;;;;;;;75.93;35.28;;;2.80;99.90;;;;;;5072347;28;20122;-70
2022/03/19 05:56:40;;;;;;;72.47;34.60;;;2.80;99.90;;;;;;5071394;28;20031;-70
2022/03/19 05:59:05;;;;;;;74.60;35.22;;;2.80;99.90;;;;;;5071344;28;20024;-70
2022/03/19 06:01:35;;;;;;;79.07;36.92;;;2.80;99.90;;;;;;5072384;28;20021;-70
2022/03/19 06:04:01;;;;;;;72.68;34.40;;;2.80;99.90;;;;;;5072167;28;20025;-70
2022/03/19 06:06:30;;;;;;;81.03;35.05;;;2.90;99.90;;;;;;5071358;28;20031;-70
2022/03/19 06:08:57;;;;;;;74.78;35.58;;;2.90;99.90;;;;;;5070910;28;20096;-71
2022/03/19 06:11:23;;;;;;;66.90;33.67;;;2.90;99.90;;;;;;5070592;28;20020;-71
2022/03/19 06:13:51;;;;;;;69.22;33.45;;;2.90;99.90;;;;;;5071937;28;20082;-70
2022/03/19 06:16:20;;;;;;;74.80;34.13;;;3.00;99.90;;;;;;5071532;28;20112;-70
2022/03/19 06:18:49;;;;;;;74.05;34.60;;;3.00;99.90;;;;;;5072083;28;20024;-70
2022/03/19 06:21:16;;;;;;;68.47;35.05;;;3.00;99.90;;;;;;5072449;28;20104;-70
2022/03/19 06:23:47;;;;;;;67.93;32.47;;;3.10;99.90;;;;;;5072190;28;20086;-71
2022/03/19 06:26:14;;;;;;;61.58;32.45;;;3.10;99.90;;;;;;5072061;28;20095;-70
2022/03/19 06:28:40;;;;;;;67.53;33.28;;;3.20;99.90;;;;;;5072221;28;20027;-70
2022/03/19 06:31:06;;;;;;;71.32;34.40;;;3.20;99.90;;;;;;5075393;28;20036;-70
2022/03/19 06:33:38;;;;;;;64.88;32.05;;;3.30;99.90;;;;;;5076032;28;20020;-70
2022/03/19 06:38:48;;;;;;;65.30;34.85;;;3.30;99.90;;;;;;5076175;28;20070;-70
2022/03/19 06:41:13;;;;;;;66.18;33.60;;;3.30;99.90;;;;;;5076228;28;20095;-70
2022/03/19 06:43:39;;;;;;;60.97;32.58;;;3.40;99.90;;;;;;5075794;28;20020;-70
2022/03/19 06:46:05;;;;;;;68.05;33.10;;;3.40;99.90;;;;;;5075696;28;20100;-70
2022/03/19 06:48:31;;;;;;;62.22;31.73;;;3.50;99.90;;;;;;5075806;28;20044;-70
2022/03/19 06:50:57;;;;;;;62.67;32.15;;;3.50;99.90;;;;;;5074640;28;20544;-69
2022/03/19 06:53:23;;;;;;;61.40;31.92;;;3.60;99.90;;;;;;5075549;28;20451;-70
2022/03/19 06:55:55;;;;;;;69.88;32.67;;;3.60;99.90;;;;;;5075787;28;20108;-70
2022/03/19 06:58:21;;;;;;;67.53;32.03;;;3.70;99.90;;;;;;5075471;28;20035;-70
2022/03/19 07:00:47;;;;;;;67.00;30.70;;;3.80;99.90;;;;;;5051694;28;20089;-70
2022/03/19 07:03:13;;;;;;;63.28;31.80;;;3.80;99.90;;;;;;5078470;28;20028;-70
2022/03/19 07:05:39;;;;;;;64.13;31.85;;;3.90;99.90;;;;;;5066923;28;20415;-71
2022/03/19 07:08:08;;;;;;;59.65;31.10;;;4.00;99.90;;;;;;5075064;28;20035;-71
2022/03/19 07:10:37;;;;;;;63.38;31.25;;;4.10;99.90;;;;;;5074430;28;20086;-71
2022/03/19 07:13:03;;;;;;;61.95;30.52;;;4.10;99.90;;;;;;5073150;28;20029;-71
2022/03/19 07:15:32;;;;;;;56.10;29.40;;;4.20;99.90;;;;;;5070783;28;20033;-71
2022/03/19 07:18:01;;;;;;;60.95;32.17;;;4.30;99.90;;;;;;5073605;28;20033;-72
2022/03/19 07:20:28;;;;;;;63.03;32.58;;;4.40;99.90;;;;;;5064252;28;20032;-71
2022/03/19 07:22:55;;;;;;;60.28;31.95;;;4.40;99.90;;;;;;5071808;28;20392;-72
2022/03/19 07:25:40;;;;;;;65.72;31.10;;;4.50;99.90;;;;;;5064123;28;20377;-71
2022/03/19 07:28:11;;;;;;;61.08;30.15;;;4.50;99.90;;;;;;5067218;28;20024;-71
2022/03/19 07:30:38;;;;;;;60.47;31.83;;;4.50;99.90;;;;;;5063608;28;20036;-71
2022/03/19 07:33:07;;;;;;;60.22;32.08;;;4.60;99.90;;;;;;5063541;28;20091;-70
2022/03/19 07:35:33;;;;;;;66.20;32.88;;;4.60;99.90;;;;;;5065419;28;20107;-73
2022/03/19 07:38:02;;;;;;;60.95;30.75;;;4.60;99.90;;;;;;5063831;28;20148;-73
2022/03/19 07:43:14;;;;;;;60.50;31.23;;;4.80;99.90;;;;;;5067884;28;20032;-72
2022/03/19 07:45:41;;;;;;;62.88;31.50;;;4.90;99.90;;;;;;5068120;28;20081;-75
2022/03/19 07:48:07;;;;;;;60.20;31.02;;;4.90;99.90;;;;;;5063409;28;20025;-73
2022/03/19 07:50:35;;;;;;;53.83;28.83;;;5.00;99.90;;;;;;5064659;28;20092;-75
2022/03/19 07:53:01;;;;;;;53.58;28.92;;;5.10;99.90;;;;;;5070714;28;20032;-71
2022/03/19 07:55:27;;;;;;;57.17;28.67;;;5.10;99.90;;;;;;5074055;28;20542;-71
2022/03/19 07:57:59;;;;;;;57.25;31.08;;;5.20;99.90;;;;;;5073086;28;20025;-71
2022/03/19 08:00:27;;;;;;;61.53;28.17;;;5.20;99.90;;;;;;5063488;28;20111;-71
2022/03/19 08:02:56;;;;;;;56.80;30.77;;;5.30;99.90;;;;;;5094362;28;20031;-71
2022/03/19 08:05:22;;;;;;;60.67;31.27;;;5.30;99.90;;;;;;5082556;28;20078;-71
2022/03/19 08:07:53;;;;;;;60.78;31.63;;;5.40;99.90;;;;;;5071001;28;20024;-71
2022/03/19 08:10:19;;;;;;;64.70;31.45;;;5.40;99.90;;;;;;5049972;28;20115;-71
2022/03/19 08:12:46;;;;;;;57.80;29.10;;;5.50;99.90;;;;;;5072777;28;20056;-71
2022/03/19 08:15:12;;;;;;;55.22;28.00;;;5.60;99.90;;;;;;5063997;28;20017;-71
2022/03/19 08:17:42;;;;;;;63.00;31.33;;;5.70;99.90;;;;;;5063971;28;20023;-71
2022/03/19 08:20:08;;;;;;;57.35;29.63;;;5.70;99.90;;;;;;5073259;28;20409;-71
2022/03/19 08:22:34;;;;;;;58.10;29.00;;;5.80;99.90;;;;;;5073124;28;20024;-71
2022/03/19 08:25:01;;;;;;;56.83;29.85;;;5.90;99.90;;;;;;5090640;28;20413;-71
2022/03/19 08:27:35;;;;;;;53.97;28.85;;;5.90;99.90;;;;;;5077881;28;20397;-71
2022/03/19 08:30:05;;;;;;;53.25;28.50;;;6.00;99.90;;;;;;5066070;28;20020;-71
2022/03/19 08:32:31;;;;;;;61.53;29.88;;;6.10;99.90;;;;;;5072542;28;20035;-71
2022/03/19 08:35:03;;;;;;;53.90;28.85;;;6.20;99.90;;;;;;5066754;28;20111;-71
2022/03/19 08:37:29;;;;;;;56.45;30.27;;;6.30;99.90;;;;;;5072042;28;20025;-71
2022/03/19 08:42:46;;;;;;;51.65;28.02;;;6.40;99.90;;;;;;5079261;28;20070;-72
2022/03/19 08:45:14;;;;;;;52.42;28.27;;;6.50;99.90;;;;;;5073346;28;20048;-71
2022/03/19 08:47:40;;;;;;;52.25;28.05;;;6.60;99.90;;;;;;5058674;28;20025;-71
2022/03/19 08:50:11;;;;;;;52.47;27.67;;;6.70;99.90;;;;;;5072548;28;20392;-71
2022/03/19 08:52:37;;;;;;;51.25;27.85;;;6.80;99.90;;;;;;5072559;28;20033;-71
2022/03/19 08:55:04;;;;;;;47.50;25.83;;;6.90;99.90;;;;;;5068348;28;20043;-71
2022/03/19 08:57:31;;;;;;;49.95;26.95;;;7.00;99.90;;;;;;5071761;28;20025;-71
2022/03/19 08:59:59;;;;;;;54.67;26.85;;;7.00;99.90;;;;;;5080670;28;20107;-71
2022/03/19 09:02:25;;;;;;;45.38;25.02;;;7.10;99.90;;;;;;5071260;28;20025;-71
2022/03/19 09:04:51;;;;;;;49.65;25.83;;;7.20;99.90;;;;;;5067954;28;20031;-73
2022/03/19 09:07:18;;;;;;;47.92;26.88;;;7.20;99.90;;;;;;5066908;28;20108;-73
2022/03/19 09:09:44;;;;;;;49.15;26.13;;;7.30;99.90;;;;;;5067275;28;20044;-72
2022/03/19 09:12:10;;;;;;;49.28;26.40;;;7.40;99.90;;;;;;5066704;28;20741;-73
2022/03/19 09:14:36;;;;;;;52.72;24.38;;;7.50;99.90;;;;;;5059910;28;20020;-71
2022/03/19 09:17:02;;;;;;;51.17;25.30;;;7.60;99.90;;;;;;5063340;28;20389;-72
2022/03/19 09:19:28;;;;;;;48.78;24.63;;;7.60;99.90;;;;;;5064467;28;20017;-72
2022/03/19 09:21:54;;;;;;;46.72;25.02;;;7.70;99.20;;;;;;5063420;28;20462;-73
2022/03/19 09:24:21;;;;;;;45.90;25.35;;;7.80;99.10;;;;;;5063641;28;20388;-72
2022/03/19 09:26:46;;;;;;;46.33;24.40;;;7.80;98.90;;;;;;5062123;28;20036;-72
2022/03/19 09:29:15;;;;;;;43.08;23.98;;;7.90;98.70;;;;;;5064504;28;20493;-71
2022/03/19 09:31:41;;;;;;;44.13;23.63;;;7.90;98.70;;;;;;5066797;28;20032;-72
2022/03/19 09:34:07;;;;;;;41.22;23.13;;;8.10;98.60;;;;;;5062458;28;20048;-71
2022/03/19 09:36:32;;;;;;;42.60;22.60;;;8.20;97.90;;;;;;5064437;28;20060;-71
2022/03/19 09:38:58;;;;;;;44.45;22.63;;;8.30;96.60;;;;;;5065831;28;20016;-72
2022/03/19 09:41:24;;;;;;;39.97;21.40;;;8.30;95.70;;;;;;5062057;28;20028;-71
2022/03/19 09:43:49;;;;;;;42.55;23.60;;;8.40;95.20;;;;;;5066166;28;20024;-73
2022/03/19 09:46:16;;;;;;;39.95;21.17;;;8.50;95.50;;;;;;5066686;28;20099;-71
2022/03/19 09:48:42;;;;;;;43.58;22.65;;;8.50;94.60;;;;;;5064995;28;20024;-72
2022/03/19 09:51:11;;;;;;;43.13;22.45;;;8.60;94.30;;;;;;5066730;28;20036;-71
2022/03/19 09:53:39;;;;;;;33.22;19.80;;;8.60;93.30;;;;;;5067601;28;20024;-71
2022/03/19 09:56:05;;;;;;;37.10;20.55;;;8.70;91.90;;;;;;5069594;28;20037;-72
2022/03/19 09:58:33;;;;;;;39.30;21.80;;;8.70;90.80;;;;;;5065148;28;20431;-71
2022/03/19 10:01:05;;;;;;;39.70;21.52;;;8.80;91.00;;;;;;5060265;28;20024;-73
2022/03/19 10:03:37;;;;;;;36.40;20.08;;;8.80;90.70;;;;;;5060207;28;20036;-72
2022/03/19 10:08:58;;;;;;;35.55;20.00;;;8.90;86.40;;;;;;5069399;28;20035;-73
2022/03/19 10:11:30;;;;;;;34.67;20.38;;;9.00;84.80;;;;;;5069999;28;20040;-72
2022/03/19 10:13:56;;;;;;;36.55;19.45;;;9.00;87.80;;;;;;5068096;28;20447;-74
2022/03/19 10:16:29;;;;;;;38.70;20.63;;;9.00;87.50;;;;;;5071607;28;20025;-74
2022/03/19 10:18:59;;;;;;;40.85;20.58;;;9.10;88.50;;;;;;5067911;28;20037;-74
2022/03/19 10:21:27;;;;;;;36.78;20.55;;;9.20;88.00;;;;;;5069047;28;20051;-75
2022/03/19 10:23:53;;;;;;;39.25;20.48;;;9.30;83.80;;;;;;5069681;28;20424;-72
2022/03/19 10:26:22;;;;;;;33.80;19.25;;;9.30;79.90;;;;;;5069740;28;20037;-73
2022/03/19 10:29:05;;;;;;;36.55;20.17;;;9.30;79.10;;;;;;5067382;28;20036;-74
2022/03/19 10:31:38;;;;;;;40.42;20.30;;;9.30;81.90;;;;;;5067789;28;20119;-73
2022/03/19 10:34:06;;;;;;;32.88;18.73;;;9.30;82.40;;;;;;5062973;28;20025;-72
2022/03/19 10:36:33;;;;;;;38.10;20.67;;;9.40;82.20;;;;;;5067050;28;20103;-72
2022/03/19 10:39:00;;;;;;;38.75;20.85;;;9.40;81.70;;;;;;5069786;28;20025;-73
2022/03/19 10:41:27;;;;;;;37.40;19.52;;;9.40;80.90;;;;;;5074267;28;20080;-71
2022/03/19 10:43:53;;;;;;;36.33;21.23;;;9.50;79.70;;;;;;5068774;28;20595;-73
2022/03/19 10:46:19;;;;;;;35.70;21.65;;;9.50;79.90;;;;;;5064974;28;20036;-73
2022/03/19 10:48:52;;;;;;;40.17;21.60;;;9.50;80.30;;;;;;5068758;28;20047;-72
2022/03/19 10:51:31;;;;;;;34.45;20.55;;;9.50;82.20;;;;;;5066995;28;20553;-73
2022/03/19 10:53:57;;;;;;;36.17;20.77;;;9.60;82.40;;;;;;5070039;28;20029;-73
2022/03/19 10:56:23;;;;;;;40.00;21.55;;;9.60;80.80;;;;;;5065397;28;20081;-72
2022/03/19 10:58:49;;;;;;;40.03;21.80;;;9.70;79.30;;;;;;5072097;28;20031;-73
2022/03/19 11:01:16;;;;;;;39.72;22.02;;;9.60;80.80;;;;;;5067885;28;20024;-72
2022/03/19 11:03:45;;;;;;;39.95;22.40;;;9.50;81.60;;;;;;5066627;28;20048;-72
2022/03/19 11:06:11;;;;;;;36.13;20.77;;;9.60;81.70;;;;;;5075919;28;20035;-72
2022/03/19 11:08:44;;;;;;;38.90;21.85;;;9.60;80.40;;;;;;5068123;28;20219;-72
2022/03/19 11:11:27;;;;;;;42.90;22.33;;;9.50;81.30;;;;;;5069071;28;20481;-71
2022/03/19 11:13:57;;;;;;;41.17;22.77;;;9.60;81.40;;;;;;5066015;28;20033;-71
2022/03/19 11:16:25;;;;;;;40.17;21.60;;;9.60;79.30;;;;;;5067656;28;20828;-73
2022/03/19 11:18:52;;;;;;;41.60;22.77;;;9.60;79.40;;;;;;5068578;28;20024;-72
2022/03/19 11:21:20;;;;;;;41.92;22.67;;;9.70;80.00;;;;;;5068090;28;20159;-71
2022/03/19 11:23:55;;;;;;;37.25;21.17;;;9.70;79.40;;;;;;5067329;28;20032;-71
2022/03/19 11:26:27;;;;;;;39.75;21.13;;;9.60;78.10;;;;;;5066862;28;20035;-72
2022/03/19 11:28:53;;;;;;;42.97;22.25;;;9.60;77.10;;;;;;5064929;28;20530;-73
2022/03/19 11:31:29;;;;;;;35.38;20.33;;;9.60;77.00;;;;;;5066738;28;20036;-72
2022/03/19 11:34:15;;;;;;;36.58;21.60;;;9.70;76.90;;;;;;5067083;28;20029;-72
2022/03/19 11:36:58;;;;;;;38.78;21.05;;;9.70;76.80;;;;;;5067542;28;20033;-74
2022/03/19 11:39:25;;;;;;;36.22;20.17;;;9.80;76.20;;;;;;5067993;28;20029;-73
2022/03/19 11:41:51;;;;;;;40.13;20.65;;;9.90;74.60;;;;;;5065295;28;20103;-72
2022/03/19 11:44:24;;;;;;;34.97;19.73;;;9.90;74.80;;;;;;5068178;28;20481;-74
2022/03/19 11:47:01;;;;;;;42.92;22.05;;;9.90;75.00;;;;;;5065202;28;20564;-73
2022/03/19 11:49:52;;;;;;;34.72;19.27;;;9.90;74.30;;;;;;5071051;28;20066;-72
2022/03/19 11:52:24;;;;;;;36.80;21.23;;;10.00;74.10;;;;;;5067677;28;20028;-73
2022/03/19 11:55:05;;;;;;;38.17;21.63;;;10.00;74.80;;;;;;5066579;28;20032;-74
2022/03/19 11:57:45;;;;;;;40.72;22.40;;;10.00;75.20;;;;;;5067943;28;20027;-74
2022/03/19 12:00:14;;;;;;;38.10;21.63;;;10.00;75.60;;;;;;5065858;28;20029;-73
2022/03/19 12:03:05;;;;;;;37.60;22.00;;;10.00;76.10;;;;;;5060858;28;20028;-73
2022/03/19 12:05:32;;;;;;;42.00;22.30;;;10.00;75.90;;;;;;5066172;28;20030;-73
2022/03/19 12:08:08;;;;;;;40.40;22.42;;;10.10;77.00;;;;;;5065864;28;20074;-73
2022/03/19 12:10:50;;;;;;;38.33;22.90;;;10.20;77.30;;;;;;5061508;28;20051;-73
2022/03/19 12:13:28;;;;;;;41.20;22.05;;;10.20;77.40;;;;;;5070655;28;20404;-71
2022/03/19 12:15:59;;;;;;;39.10;21.73;;;10.20;76.60;;;;;;5070990;28;20046;-71
2022/03/19 12:18:27;;;;;;;35.40;20.58;;;10.30;76.30;;;;;;5070134;28;20036;-72
2022/03/19 12:20:59;;;;;;;33.35;19.25;;;10.40;75.90;;;;;;5065819;28;20430;-73
2022/03/19 12:23:28;;;;;;;34.33;19.58;;;10.40;73.90;;;;;;5068238;28;20028;-72
2022/03/19 12:25:58;;;;;;;34.25;18.38;;;10.40;74.20;;;;;;5067756;28;20029;-72
2022/03/19 12:28:25;;;;;;;31.42;16.75;;;10.40;73.40;;;;;;5069556;28;20485;-73
2022/03/19 12:30:51;;;;;;;28.58;15.50;;;10.40;72.00;;;;;;5068394;28;20028;-73
2022/03/19 12:33:16;;;;;;;27.23;15.25;;;10.40;71.90;;;;;;5064761;28;20094;-73
2022/03/19 12:35:44;;;;;;;24.95;14.50;;;10.40;71.60;;;;;;5072037;28;20036;-71
2022/03/19 12:38:10;;;;;;;23.77;14.55;;;10.40;70.90;;;;;;5069292;28;20103;-74
2022/03/19 12:43:34;;;;;;;26.23;14.55;;;10.40;71.30;;;;;;5066762;28;20412;-73
2022/03/19 12:46:00;;;;;;;27.05;14.30;;;10.30;70.50;;;;;;5071040;28;20481;-72
2022/03/19 12:48:32;;;;;;;26.05;14.30;;;10.30;71.30;;;;;;5070474;28;20063;-71
2022/03/19 12:50:58;;;;;;;27.40;14.40;;;10.30;71.10;;;;;;5063760;28;20027;-73
2022/03/19 12:53:32;;;;;;;29.33;15.13;;;10.30;70.50;;;;;;5066821;28;20047;-70
2022/03/19 12:56:17;;;;;;;29.20;15.00;;;10.30;70.40;;;;;;5072564;28;20033;-71
2022/03/19 12:58:46;;;;;;;24.13;14.57;;;10.10;70.60;;;;;;5070079;28;20021;-71
2022/03/19 13:01:14;;;;;;;27.98;14.80;;;10.10;71.40;;;;;;5069698;28;20064;-70
2022/03/19 13:03:43;;;;;;;27.73;14.65;;;10.20;71.30;;;;;;5065800;28;20024;-71
2022/03/19 13:06:09;;;;;;;24.58;14.88;;;10.20;70.30;;;;;;5066271;28;20110;-73